Terminal Aerodrome Forecast
Issued by NWS Spokane, WA

Home | Current Version | Previous Version | Text Only | Print | Product List | Glossary On
Versions: 1 2 3 4 5 6 7 8 9 10 11 12
000
FTUS46 KOTX 300524
TAFEAT
TAF
KEAT 300524Z 3006/3106 30016KT P6SM FEW080 SCT250
     FM300700 30011KT P6SM FEW250
     FM302100 12005KT P6SM FEW080 SCT250=

USA.gov is the U.S. government's official web portal to all federal, state and local government web resources and services.